createdAt,value
2019-02-08T00:00:12.641Z,3.00
2019-02-08T00:02:43.992Z,3.10
2019-02-08T00:05:15.572Z,3.10
2019-02-08T00:07:46.255Z,3.10
2019-02-08T00:10:19.138Z,3.10
2019-02-08T00:12:49.928Z,3.20
2019-02-08T00:15:26.524Z,3.20
2019-02-08T00:17:57.562Z,3.20
2019-02-08T00:20:29.239Z,3.10
2019-02-08T00:23:01.222Z,3.10
2019-02-08T00:25:31.628Z,3.00
2019-02-08T00:28:03.311Z,3.00
2019-02-08T00:30:34.497Z,3.10
2019-02-08T00:33:06.683Z,3.20
2019-02-08T00:35:37.892Z,3.30
2019-02-08T00:38:09.401Z,3.30
2019-02-08T00:40:39.995Z,3.20
2019-02-08T00:43:12.283Z,3.00
2019-02-08T00:45:43.737Z,2.90
2019-02-08T00:48:15.001Z,2.90
2019-02-08T00:50:46.327Z,2.80
2019-02-08T00:53:18.084Z,2.60
2019-02-08T00:55:49.415Z,2.40
2019-02-08T00:58:20.796Z,2.30
2019-02-08T01:00:51.925Z,2.40
2019-02-08T01:03:22.320Z,2.40
2019-02-08T01:05:53.700Z,2.40
2019-02-08T01:08:25.855Z,2.20
2019-02-08T01:10:56.807Z,2.40
2019-02-08T01:13:28.862Z,2.50
2019-02-08T01:16:00.238Z,2.50
2019-02-08T01:18:31.343Z,2.60
2019-02-08T01:21:02.314Z,2.60
2019-02-08T01:23:40.857Z,2.50
2019-02-08T01:26:05.817Z,2.30
2019-02-08T01:28:36.147Z,2.00
2019-02-08T01:31:06.818Z,1.80
2019-02-08T01:33:38.503Z,1.70
2019-02-08T01:36:09.882Z,1.50
2019-02-08T01:38:41.219Z,1.40
2019-02-08T01:41:11.868Z,1.30
2019-02-08T01:43:43.259Z,1.30
2019-02-08T01:46:14.709Z,1.20
2019-02-08T01:49:23.491Z,1.10
2019-02-08T01:51:54.188Z,0.90
2019-02-08T01:54:25.498Z,0.80
2019-02-08T01:56:56.824Z,0.70
2019-02-08T01:59:27.922Z,0.60
2019-02-08T03:01:54.342Z,2.70
2019-02-08T03:04:25.011Z,2.60
2019-02-08T03:06:55.772Z,2.50
2019-02-08T03:09:37.034Z,2.70
2019-02-08T03:12:08.704Z,2.80
2019-02-08T03:14:40.668Z,3.10
2019-02-08T03:17:12.081Z,3.10
2019-02-08T03:19:43.810Z,3.30
2019-02-08T03:22:14.440Z,3.40
2019-02-08T03:24:47.234Z,3.50
2019-02-08T03:27:18.316Z,3.50
2019-02-08T03:29:49.347Z,3.50
2019-02-08T03:32:20.876Z,3.40
2019-02-08T03:34:52.555Z,3.30
2019-02-08T03:37:23.637Z,3.20
2019-02-08T03:39:54.648Z,3.30
2019-02-08T03:42:25.982Z,3.40
2019-02-08T03:44:57.649Z,3.40
2019-02-08T03:47:29.389Z,3.30
2019-02-08T03:50:01.612Z,2.90
2019-02-08T03:52:33.346Z,2.40
2019-02-08T03:55:04.335Z,2.10
2019-02-08T03:57:35.292Z,1.90
2019-02-08T04:00:11.317Z,1.70
2019-02-08T04:02:43.015Z,1.60
2019-02-08T04:05:14.325Z,1.50
2019-02-08T04:07:45.758Z,1.30
2019-02-08T04:10:18.065Z,1.20
2019-02-08T04:12:49.734Z,1.10
2019-02-08T04:15:20.227Z,0.90
2019-02-08T04:17:52.235Z,0.90
2019-02-08T04:20:25.390Z,0.80
2019-02-08T04:22:56.479Z,0.80
2019-02-08T04:25:27.558Z,0.80
2019-02-08T04:28:04.779Z,0.80
2019-02-08T04:30:35.554Z,0.80
2019-02-08T04:33:08.128Z,0.70
2019-02-08T04:35:39.554Z,0.80
2019-02-08T04:38:10.195Z,0.80
2019-02-08T04:40:40.919Z,0.60
2019-02-08T04:43:11.664Z,0.60
2019-02-08T04:45:42.911Z,0.50
2019-02-08T04:48:14.219Z,0.60
2019-02-08T04:50:45.113Z,0.60
2019-02-08T04:53:16.421Z,0.60
2019-02-08T04:55:48.100Z,0.50
2019-02-08T04:58:19.777Z,0.40
2019-02-08T05:00:51.045Z,0.40
2019-02-08T05:03:22.273Z,0.30
2019-02-08T05:05:53.640Z,0.20
2019-02-08T05:08:46.284Z,0.30
2019-02-08T05:11:17.303Z,0.30
2019-02-08T05:13:48.688Z,0.30
2019-02-08T05:16:19.349Z,0.30
2019-02-08T05:18:50.410Z,0.40
2019-02-08T05:21:21.795Z,0.40
2019-02-08T05:23:53.406Z,0.30
2019-02-08T05:26:24.338Z,0.20
2019-02-08T05:28:56.097Z,0.30
2019-02-08T05:31:27.368Z,0.20
2019-02-08T05:33:58.390Z,0.40
2019-02-08T05:36:29.884Z,0.50
2019-02-08T05:39:01.551Z,0.50
2019-02-08T05:41:33.096Z,0.50
2019-02-08T05:44:34.509Z,0.30
2019-02-08T05:47:09.576Z,0.30
2019-02-08T05:49:45.345Z,0.30
2019-02-08T05:52:16.705Z,0.30
2019-02-08T05:54:54.260Z,0.20
2019-02-08T05:57:21.300Z,0.10
2019-02-08T05:59:52.614Z,0.10
2019-02-08T06:02:23.739Z,0.10
2019-02-08T06:04:54.380Z,0.10
2019-02-08T06:07:26.104Z,0.10
2019-02-08T06:09:57.484Z,0.10
2019-02-08T06:12:28.413Z,0.20
2019-02-08T06:15:00.033Z,0.10
2019-02-08T06:17:31.057Z,0.10
2019-02-08T06:20:02.272Z,0.00
2019-02-08T06:22:34.163Z,0.00
2019-02-08T06:25:07.186Z,0.00
2019-02-08T06:27:38.440Z,0.00
2019-02-08T06:30:12.055Z,0.00
2019-02-08T06:32:43.205Z,0.00
2019-02-08T06:35:15.700Z,-0.10
2019-02-08T06:37:47.562Z,-0.20
2019-02-08T06:40:24.074Z,-0.30
2019-02-08T06:42:55.886Z,-0.40
2019-02-08T06:45:27.617Z,-0.40
2019-02-08T06:47:59.303Z,-0.40
2019-02-08T06:50:30.629Z,-0.50
2019-02-08T06:53:01.594Z,-0.50
2019-02-08T06:55:32.597Z,-0.60
2019-02-08T06:58:22.615Z,-0.60
2019-02-08T07:01:14.328Z,-0.70
2019-02-08T07:04:09.757Z,-0.70
2019-02-08T07:07:18.383Z,-0.60
2019-02-08T07:10:02.608Z,-0.40
2019-02-08T07:12:58.262Z,-0.10
2019-02-08T07:15:54.664Z,0.30
2019-02-08T07:18:49.253Z,0.70
2019-02-08T07:21:51.527Z,1.30
2019-02-08T07:24:36.578Z,1.80
2019-02-08T07:27:24.927Z,2.20
2019-02-08T07:30:14.007Z,2.40
2019-02-08T07:33:02.875Z,2.80
2019-02-08T07:35:51.294Z,3.10
2019-02-08T07:38:44.661Z,3.10
2019-02-08T07:41:47.195Z,2.70
2019-02-08T07:44:40.534Z,2.90
2019-02-08T07:47:21.287Z,3.00
2019-02-08T07:50:17.214Z,3.80
2019-02-08T07:52:58.412Z,3.60
2019-02-08T07:55:53.861Z,4.30
2019-02-08T07:58:46.564Z,4.30
2019-02-08T08:01:40.124Z,4.70
2019-02-08T08:04:30.010Z,5.00
2019-02-08T08:07:29.719Z,5.30
2019-02-08T08:10:07.838Z,5.50
2019-02-08T08:13:03.551Z,5.20
2019-02-08T08:15:59.473Z,5.90
2019-02-08T08:18:44.033Z,6.30
2019-02-08T08:21:45.828Z,6.10
2019-02-08T08:24:37.565Z,6.20
2019-02-08T08:27:27.331Z,6.10
2019-02-08T08:30:21.522Z,6.00
2019-02-08T08:33:18.531Z,5.90
2019-02-08T08:36:08.515Z,5.80
2019-02-08T08:40:06.119Z,6.10
2019-02-08T08:43:05.060Z,6.50
2019-02-08T08:46:33.122Z,6.70
2019-02-08T08:49:53.538Z,7.20
2019-02-08T08:53:36.589Z,7.40
2019-02-08T08:57:01.103Z,8.10
2019-02-08T09:00:20.806Z,8.90
2019-02-08T09:03:53.676Z,9.70
2019-02-08T09:07:39.420Z,9.70
2019-02-08T09:11:10.264Z,9.90
2019-02-08T09:14:30.612Z,9.70
2019-02-08T09:18:12.096Z,9.10
2019-02-08T09:21:42.000Z,8.90
2019-02-08T09:24:45.522Z,8.90
2019-02-08T09:28:40.623Z,9.10
2019-02-08T09:32:19.483Z,9.40
2019-02-08T09:35:55.101Z,9.20
2019-02-08T09:39:13.269Z,8.50
2019-02-08T09:42:42.053Z,9.20
2019-02-08T09:46:00.405Z,9.40
2019-02-08T09:49:26.883Z,10.10
2019-02-08T09:53:04.319Z,9.10
2019-02-08T09:56:41.793Z,9.10
2019-02-08T10:00:16.345Z,9.30
2019-02-08T10:03:52.014Z,9.90
2019-02-08T10:07:03.002Z,10.50
2019-02-08T10:10:28.116Z,11.30
2019-02-08T10:14:11.876Z,11.40
2019-02-08T10:17:51.016Z,11.40
2019-02-08T10:21:18.997Z,12.00
2019-02-08T10:24:41.774Z,11.90
2019-02-08T10:28:19.584Z,12.00
2019-02-08T10:32:07.384Z,11.90
2019-02-08T10:35:32.406Z,12.20
2019-02-08T10:39:05.875Z,11.90
2019-02-08T10:42:43.788Z,11.60
2019-02-08T10:46:14.215Z,11.80
2019-02-08T10:49:35.930Z,12.10
2019-02-08T10:53:07.061Z,11.60
2019-02-08T10:56:37.332Z,11.50
2019-02-08T11:00:01.988Z,11.80
2019-02-08T11:03:28.885Z,12.00
2019-02-08T11:07:15.491Z,10.90
2019-02-08T11:10:51.221Z,10.90
2019-02-08T11:14:14.177Z,11.30
2019-02-08T11:17:53.658Z,12.60
2019-02-08T11:20:24.900Z,12.70
2019-02-08T11:22:56.336Z,12.10
2019-02-08T11:25:27.498Z,11.30
2019-02-08T11:28:00.024Z,10.70
2019-02-08T11:30:31.040Z,11.20
2019-02-08T11:33:01.784Z,11.30
2019-02-08T11:35:39.887Z,11.30
2019-02-08T11:38:10.862Z,11.60
2019-02-08T11:40:44.773Z,12.20
2019-02-08T11:43:15.414Z,12.70
2019-02-08T11:45:46.832Z,13.10
2019-02-08T11:48:55.775Z,13.00
2019-02-08T11:51:26.736Z,12.00
2019-02-08T11:54:08.113Z,12.10
2019-02-08T11:56:39.479Z,11.00
2019-02-08T11:59:10.753Z,10.00
2019-02-08T12:01:46.465Z,9.70
2019-02-08T12:04:25.735Z,9.80
2019-02-08T12:06:56.466Z,9.70
2019-02-08T12:09:28.372Z,9.70
2019-02-08T12:12:03.555Z,9.90
2019-02-08T12:14:34.472Z,9.60
2019-02-08T12:17:06.230Z,9.70
2019-02-08T12:19:37.868Z,9.70
2019-02-08T12:22:08.903Z,9.30
2019-02-08T12:24:53.045Z,9.40
2019-02-08T12:27:38.233Z,9.40
2019-02-08T12:30:15.726Z,9.40
2019-02-08T12:32:46.769Z,9.50
2019-02-08T12:35:18.509Z,9.40
2019-02-08T12:37:54.890Z,9.10
2019-02-08T12:40:25.610Z,9.30
2019-02-08T12:42:56.912Z,9.50
2019-02-08T12:45:27.655Z,9.90
2019-02-08T12:47:58.780Z,10.10
2019-02-08T12:50:30.158Z,10.20
2019-02-08T12:53:00.544Z,10.60
2019-02-08T12:55:31.582Z,10.70
2019-02-08T12:58:04.273Z,11.00
2019-02-08T13:00:36.126Z,11.30
2019-02-08T13:03:06.789Z,11.80
2019-02-08T13:05:38.495Z,12.50
2019-02-08T13:08:13.886Z,13.20
2019-02-08T13:10:45.282Z,12.10
2019-02-08T13:13:15.948Z,11.10
2019-02-08T13:15:47.370Z,11.20
2019-02-08T13:18:18.645Z,11.20
2019-02-08T13:20:49.560Z,11.60
2019-02-08T13:23:27.058Z,12.50
2019-02-08T13:25:57.950Z,13.30
2019-02-08T13:28:31.248Z,12.90
2019-02-08T13:31:02.797Z,12.20
2019-02-08T13:33:33.534Z,12.20
2019-02-08T13:36:04.123Z,11.60
2019-02-08T13:38:36.013Z,11.10
2019-02-08T13:41:06.999Z,11.40
2019-02-08T13:43:39.779Z,12.30
2019-02-08T13:46:10.845Z,12.70
2019-02-08T13:48:42.509Z,13.10
2019-02-08T13:51:14.372Z,13.60
2019-02-08T13:53:46.084Z,14.40
2019-02-08T13:56:17.123Z,14.00
2019-02-08T13:58:49.549Z,13.50
2019-02-08T14:01:21.377Z,13.30
2019-02-08T14:03:52.872Z,13.30
2019-02-08T14:06:24.376Z,13.00
2019-02-08T14:08:58.987Z,13.20
2019-02-08T14:11:30.731Z,13.50
2019-02-08T14:14:02.621Z,13.80
2019-02-08T14:16:34.197Z,14.10
2019-02-08T14:19:05.586Z,14.60
2019-02-08T14:21:37.412Z,15.00
2019-02-08T14:24:16.486Z,15.10
2019-02-08T14:26:49.138Z,15.20
2019-02-08T14:29:20.466Z,15.00
2019-02-08T14:31:53.008Z,14.50
2019-02-08T14:34:24.079Z,14.40
2019-02-08T14:37:01.662Z,14.60
2019-02-08T14:39:32.703Z,13.90
2019-02-08T14:42:04.352Z,14.30
2019-02-08T14:44:36.516Z,14.80
2019-02-08T14:47:07.876Z,13.70
2019-02-08T14:49:40.280Z,13.10
2019-02-08T14:52:10.985Z,12.70
2019-02-08T14:54:42.015Z,12.60
2019-02-08T14:57:16.841Z,12.60
2019-02-08T14:59:45.546Z,12.60
2019-02-08T15:02:17.198Z,12.50
2019-02-08T15:04:48.429Z,12.00
2019-02-08T15:07:19.772Z,11.20
2019-02-08T15:09:57.470Z,10.70
2019-02-08T15:12:28.748Z,10.00
2019-02-08T15:15:00.428Z,9.50
2019-02-08T15:17:36.206Z,9.10
2019-02-08T15:20:16.153Z,8.80
2019-02-08T15:22:52.601Z,8.60
2019-02-08T15:25:25.258Z,8.40
2019-02-08T15:28:12.700Z,8.20
2019-02-08T15:31:04.058Z,8.10
2019-02-08T15:33:40.059Z,8.00
2019-02-08T15:36:13.132Z,8.00
2019-02-08T15:38:44.452Z,8.00
2019-02-08T15:41:15.805Z,8.00
2019-02-08T15:43:46.946Z,8.10
2019-02-08T15:46:18.282Z,8.00
2019-02-08T15:48:49.898Z,7.80
2019-02-08T15:51:21.595Z,7.60
2019-02-08T15:53:53.019Z,7.60
2019-02-08T15:56:51.229Z,7.40
2019-02-08T15:59:21.958Z,7.30
2019-02-08T16:01:52.991Z,7.10
2019-02-08T16:04:30.311Z,7.00
2019-02-08T16:07:01.015Z,6.90
2019-02-08T16:09:32.004Z,6.80
2019-02-08T16:12:03.654Z,6.70
2019-02-08T16:14:44.760Z,6.60
2019-02-08T16:17:16.511Z,6.40
2019-02-08T16:19:48.407Z,6.30
2019-02-08T16:22:20.136Z,6.20
2019-02-08T16:24:51.202Z,6.00
2019-02-08T16:27:22.552Z,6.00
2019-02-08T16:29:54.188Z,5.80
2019-02-08T16:32:28.543Z,5.60
2019-02-08T16:34:59.433Z,5.50
2019-02-08T16:37:40.126Z,5.30
2019-02-08T16:40:15.680Z,5.20
2019-02-08T16:42:45.992Z,5.00
2019-02-08T16:45:31.477Z,4.80
2019-02-08T16:48:04.218Z,4.60
2019-02-08T16:50:42.262Z,4.50
2019-02-08T16:53:13.420Z,4.40
2019-02-08T16:55:44.854Z,4.30
2019-02-08T16:58:15.575Z,4.30
2019-02-08T17:00:46.623Z,4.20
2019-02-08T17:03:25.385Z,4.10
2019-02-08T17:05:56.708Z,4.10
2019-02-08T17:08:28.333Z,4.10
2019-02-08T17:11:00.363Z,4.20
2019-02-08T17:13:33.338Z,4.10
2019-02-08T17:16:04.141Z,3.90
2019-02-08T17:18:35.863Z,3.80
2019-02-08T17:21:07.006Z,3.60
2019-02-08T17:23:37.595Z,3.50
2019-02-08T17:26:08.522Z,3.40
2019-02-08T17:28:39.774Z,3.30
2019-02-08T17:31:23.102Z,3.30
2019-02-08T17:33:54.447Z,3.30
2019-02-08T17:36:26.216Z,3.20
2019-02-08T17:38:57.586Z,3.20
2019-02-08T17:41:28.711Z,3.10
2019-02-08T17:44:00.074Z,3.10
2019-02-08T17:46:32.177Z,3.10
2019-02-08T17:49:03.299Z,3.00
2019-02-08T17:51:35.125Z,2.90
2019-02-08T17:54:08.079Z,2.90
2019-02-08T17:56:39.416Z,2.80
2019-02-08T17:59:09.711Z,2.70
2019-02-08T18:01:41.535Z,2.70
2019-02-08T18:04:13.268Z,2.60
2019-02-08T18:06:44.737Z,2.40
2019-02-08T18:09:16.806Z,2.40
2019-02-08T18:11:47.924Z,2.40
2019-02-08T18:14:18.975Z,2.30
2019-02-08T18:16:50.528Z,2.20
2019-02-08T18:19:23.612Z,2.10
2019-02-08T18:22:26.703Z,2.00
2019-02-08T18:24:58.451Z,1.90
2019-02-08T18:27:29.601Z,1.80
2019-02-08T18:30:00.931Z,1.70
2019-02-08T18:32:31.994Z,1.60
2019-02-08T18:35:02.326Z,1.60
2019-02-08T18:37:34.059Z,1.60
2019-02-08T18:40:06.179Z,1.70
2019-02-08T18:42:37.579Z,1.60
2019-02-08T18:45:11.479Z,1.50
2019-02-08T18:47:42.136Z,1.40
2019-02-08T18:50:19.208Z,1.30
2019-02-08T18:52:50.673Z,1.20
2019-02-08T18:55:22.017Z,1.10
2019-02-08T18:57:52.948Z,1.00
2019-02-08T19:00:39.794Z,0.90
2019-02-08T19:03:07.826Z,0.80
2019-02-08T19:05:38.855Z,0.80
2019-02-08T19:08:11.007Z,0.70
2019-02-08T19:10:42.292Z,0.70
2019-02-08T19:13:13.607Z,0.70
2019-02-08T19:15:44.657Z,0.60
2019-02-08T19:18:15.373Z,0.60
2019-02-08T19:20:47.131Z,0.50
2019-02-08T19:23:18.088Z,0.50
2019-02-08T19:25:48.834Z,0.40
2019-02-08T19:28:26.283Z,0.40
2019-02-08T19:30:53.250Z,0.30
2019-02-08T19:33:24.936Z,0.30
2019-02-08T19:35:56.050Z,0.20
2019-02-08T19:38:27.590Z,0.20
2019-02-08T19:40:58.982Z,0.20
2019-02-08T19:43:30.627Z,0.10
2019-02-08T19:46:02.723Z,0.10
2019-02-08T19:48:33.807Z,0.10
2019-02-08T19:51:04.479Z,0.00
2019-02-08T19:53:35.882Z,0.10
2019-02-08T19:56:07.562Z,0.00
2019-02-08T19:58:39.288Z,0.00
2019-02-08T20:01:10.791Z,-0.10
2019-02-08T20:03:42.645Z,-0.10
2019-02-08T20:06:13.986Z,-0.10
2019-02-08T20:08:44.744Z,-0.10
2019-02-08T20:11:16.158Z,-0.10
2019-02-08T20:13:47.894Z,0.00
2019-02-08T20:16:18.529Z,0.00
2019-02-08T20:18:49.826Z,0.00
2019-02-08T20:21:21.245Z,0.00
2019-02-08T20:23:52.751Z,0.00
2019-02-08T20:26:24.009Z,0.00
2019-02-08T20:28:55.618Z,0.10
2019-02-08T20:31:26.546Z,0.10
2019-02-08T20:33:59.796Z,0.10
2019-02-08T20:36:30.773Z,0.10
2019-02-08T20:39:01.400Z,0.10
2019-02-08T20:41:32.041Z,0.00
2019-02-08T20:44:03.513Z,-0.10
2019-02-08T20:46:35.243Z,-0.10
2019-02-08T20:49:07.049Z,0.00
2019-02-08T20:51:38.471Z,0.10
2019-02-08T20:54:10.205Z,0.20
2019-02-08T20:56:41.257Z,0.40
2019-02-08T20:59:13.270Z,0.50
2019-02-08T21:01:44.425Z,0.50
2019-02-08T21:04:16.446Z,0.50
2019-02-08T21:06:48.167Z,0.50
2019-02-08T21:09:18.928Z,0.40
2019-02-08T21:11:50.304Z,0.40
2019-02-08T21:14:21.087Z,0.50
2019-02-08T21:16:52.553Z,0.60
2019-02-08T21:19:24.127Z,0.60
2019-02-08T21:21:54.823Z,0.70
2019-02-08T21:24:25.570Z,0.70
2019-02-08T21:26:57.046Z,0.80
2019-02-08T21:29:27.654Z,0.80
2019-02-08T21:31:59.686Z,0.80
2019-02-08T21:34:31.340Z,0.80
2019-02-08T21:37:02.984Z,0.80
2019-02-08T21:39:33.959Z,0.70
2019-02-08T21:42:05.380Z,0.70
2019-02-08T21:44:36.351Z,0.70
2019-02-08T21:47:07.377Z,0.60
2019-02-08T21:49:38.635Z,0.70
2019-02-08T21:52:09.962Z,0.60
2019-02-08T21:54:41.519Z,0.70
2019-02-08T21:57:18.392Z,0.60
2019-02-08T21:59:49.338Z,0.60
2019-02-08T22:02:19.994Z,0.60
2019-02-08T22:04:51.479Z,0.60
2019-02-08T22:07:34.129Z,0.60
2019-02-08T22:10:07.238Z,0.50
2019-02-08T22:12:38.678Z,0.50
2019-02-08T22:15:30.534Z,0.40
2019-02-08T22:18:01.963Z,0.40
2019-02-08T22:21:01.254Z,0.30
2019-02-08T22:23:32.571Z,0.20
2019-02-08T22:26:07.093Z,0.10
2019-02-08T22:28:40.718Z,0.10
2019-02-08T22:31:31.858Z,0.10
2019-02-08T22:34:03.450Z,0.10
2019-02-08T22:36:35.699Z,0.10
2019-02-08T22:39:09.984Z,0.10
2019-02-08T22:41:41.126Z,0.10
2019-02-08T22:44:15.769Z,0.10
2019-02-08T22:46:46.444Z,0.10
2019-02-08T22:49:18.127Z,0.00
2019-02-08T22:51:48.724Z,0.00
2019-02-08T22:54:31.658Z,-0.10
2019-02-08T22:57:02.378Z,-0.10
2019-02-08T22:59:32.732Z,-0.10
2019-02-08T23:02:05.416Z,-0.20
2019-02-08T23:04:55.707Z,-0.20
2019-02-08T23:07:27.047Z,-0.20
2019-02-08T23:09:58.520Z,-0.30
2019-02-08T23:12:30.119Z,-0.30
2019-02-08T23:15:15.049Z,-0.40
2019-02-08T23:17:46.377Z,-0.50
2019-02-08T23:20:19.901Z,-0.60
2019-02-08T23:22:54.266Z,-0.60
2019-02-08T23:25:25.211Z,-0.60
2019-02-08T23:27:56.200Z,-0.60
2019-02-08T23:30:26.939Z,-0.60
2019-02-08T23:32:58.338Z,-0.60
2019-02-08T23:35:29.840Z,-0.70
2019-02-08T23:38:01.252Z,-0.70
2019-02-08T23:40:32.661Z,-0.70
2019-02-08T23:43:04.009Z,-0.70
2019-02-08T23:45:35.644Z,-0.80
2019-02-08T23:48:06.914Z,-0.80
2019-02-08T23:50:37.944Z,-0.70
2019-02-08T23:53:10.885Z,-0.70
2019-02-08T23:55:41.876Z,-0.70
2019-02-08T23:58:12.964Z,-0.80
